Time;durP1;ratioP1;P1;durP2;ratioP2;P2;SDS_P1;SDS_P2;PMS_P1;PMS_P2;Temp;Humidity;BMP_temperature;BMP_pressure;BME280_temperature;BME280_humidity;BME280_pressure;Samples;Min_cycle;Max_cycle;Signal;HPM_P1;HPM_P2
2022/09/09 00:00:40;;;;;;;9.02;6.88;;;;;;;23.84;50.57;95087.16;4988573;28;20074;-60
2022/09/09 00:03:10;;;;;;;10.05;7.40;;;;;;;23.69;50.81;95059.53;4988441;28;20111;-60
2022/09/09 00:05:47;;;;;;;8.50;7.15;;;;;;;24.39;50.35;95164.53;4987094;28;20107;-62
2022/09/09 00:08:18;;;;;;;10.15;7.38;;;;;;;24.28;50.61;95142.78;4979559;28;20046;-60
2022/09/09 00:10:46;;;;;;;9.60;7.07;;;;;;;23.35;50.68;95020.19;4980636;28;20597;-65
2022/09/09 00:13:24;;;;;;;8.25;6.53;;;;;;;23.91;50.89;95104.44;4978579;28;20057;-59
2022/09/09 00:15:59;;;;;;;9.38;7.32;;;;;;;23.96;50.70;95122.75;4970906;28;20053;-61
2022/09/09 00:18:24;;;;;;;9.98;7.53;;;;;;;24.27;50.42;95152.19;4958328;28;20042;-67
2022/09/09 00:21:10;;;;;;;9.95;7.05;;;;;;;24.21;50.83;95142.59;5011691;28;20072;-63
2022/09/09 00:23:40;;;;;;;8.35;7.20;;;;;;;24.19;50.67;95151.28;5004163;28;20125;-62
2022/09/09 00:26:44;;;;;;;9.15;7.05;;;;;;;24.32;50.54;95137.78;4987484;28;20030;-65
2022/09/09 00:29:21;;;;;;;9.60;6.68;;;;;;;24.23;50.79;95143.56;5000393;28;20102;-60
2022/09/09 00:31:47;;;;;;;9.52;7.20;;;;;;;23.82;50.25;95062.41;5004203;28;20034;-60
2022/09/09 00:34:20;;;;;;;7.13;6.32;;;;;;;24.23;50.35;95135.41;5000214;28;20022;-60
2022/09/09 00:36:45;;;;;;;9.02;6.82;;;;;;;24.23;50.30;95127.22;4958293;28;20478;-60
2022/09/09 00:39:33;;;;;;;9.65;7.50;;;;;;;24.10;50.88;95121.63;5000584;28;20108;-60
2022/09/09 00:42:18;;;;;;;10.00;7.07;;;;;;;24.19;50.86;95117.81;5004005;28;20038;-62
2022/09/09 00:44:56;;;;;;;8.75;7.03;;;;;;;24.06;50.46;95106.78;4986509;28;20041;-68
2022/09/09 00:47:30;;;;;;;7.40;6.60;;;;;;;24.18;50.45;95121.78;5004717;28;20041;-62
2022/09/09 00:50:10;;;;;;;9.07;6.70;;;;;;;23.82;50.44;95054.22;5003690;28;20049;-60
2022/09/09 00:52:53;;;;;;;10.30;7.18;;;;;;;23.40;50.54;95011.94;4985986;28;20049;-68
2022/09/09 00:55:57;;;;;;;10.80;7.05;;;;;;;23.88;50.18;95072.75;4986210;28;20169;-62
2022/09/09 00:58:22;;;;;;;10.70;6.75;;;;;;;24.22;50.39;95128.44;4960454;28;20037;-59
2022/09/09 01:00:54;;;;;;;7.30;6.32;;;;;;;23.63;50.54;95058.81;5003374;28;20022;-59
2022/09/09 01:03:37;;;;;;;9.63;6.47;;;;;;;23.44;50.85;95033.47;4989230;28;20026;-60
2022/09/09 01:06:11;;;;;;;9.50;6.63;;;;;;;24.13;50.74;95126.06;4973756;28;20042;-59
2022/09/09 01:08:36;;;;;;;7.63;6.18;;;;;;;24.09;50.76;95131.03;4995483;28;20469;-60
2022/09/09 01:11:02;;;;;;;8.07;6.70;;;;;;;23.16;50.52;95043.84;5003518;28;20029;-62
2022/09/09 01:13:33;;;;;;;8.18;6.78;;;;;;;23.86;50.78;95106.50;4982421;28;20026;-60
2022/09/09 01:15:59;;;;;;;9.55;7.03;;;;;;;24.09;50.72;95125.59;4986944;28;20042;-62
2022/09/09 01:18:27;;;;;;;9.20;6.72;;;;;;;23.94;50.30;95114.31;5001563;28;20037;-63
2022/09/09 01:21:03;;;;;;;9.38;6.38;;;;;;;23.93;50.87;95107.41;4986110;28;20100;-65
2022/09/09 01:24:01;;;;;;;9.45;7.15;;;;;;;23.57;50.35;95069.03;4986330;28;20034;-64
2022/09/09 01:26:26;;;;;;;10.35;7.05;;;;;;;24.07;50.35;95122.63;4988599;28;20104;-66
2022/09/09 01:28:52;;;;;;;9.65;6.97;;;;;;;23.46;50.58;95030.97;4973690;28;20514;-66
2022/09/09 01:31:32;;;;;;;9.02;6.80;;;;;;;23.78;49.93;95083.75;4985128;28;20026;-63
2022/09/09 01:33:58;;;;;;;8.07;6.53;;;;;;;23.39;50.31;95036.97;4972322;28;20027;-62
2022/09/09 01:36:38;;;;;;;8.35;6.30;;;;;;;23.64;50.71;95079.41;4971227;28;20538;-60
2022/09/09 01:39:04;;;;;;;9.40;7.13;;;;;;;23.66;50.26;95072.22;5008442;28;20061;-67
2022/09/09 01:41:29;;;;;;;8.65;6.30;;;;;;;23.85;50.56;95110.47;4985491;28;20034;-64
2022/09/09 01:43:55;;;;;;;8.68;6.80;;;;;;;23.90;50.71;95137.69;5009172;28;20548;-66
2022/09/09 01:46:21;;;;;;;8.98;6.93;;;;;;;23.84;51.22;95137.00;4990402;28;20026;-66
2022/09/09 01:48:47;;;;;;;9.38;6.75;;;;;;;23.93;50.92;95142.88;5007275;28;20029;-62
2022/09/09 01:51:13;;;;;;;7.72;6.50;;;;;;;23.70;50.86;95121.00;4973338;28;20037;-65
2022/09/09 01:53:39;;;;;;;12.57;7.00;;;;;;;23.41;50.55;95083.56;4991981;28;20038;-60
2022/09/09 01:56:18;;;;;;;9.57;6.70;;;;;;;23.45;50.80;95092.19;4971050;28;20042;-62
2022/09/09 01:59:01;;;;;;;9.02;6.82;;;;;;;23.96;50.53;95152.75;4984110;28;20037;-60
2022/09/09 02:01:42;;;;;;;8.70;6.40;;;;;;;23.95;50.50;95143.09;5005516;28;20506;-61
2022/09/09 02:04:41;;;;;;;7.18;6.47;;;;;;;23.96;50.83;95139.13;5004709;28;20037;-68
2022/09/09 02:07:27;;;;;;;7.80;6.68;;;;;;;23.22;50.27;95039.09;4991907;28;20505;-61
2022/09/09 02:09:59;;;;;;;8.75;6.63;;;;;;;23.77;50.38;95120.47;5006062;28;20042;-68
2022/09/09 02:12:24;;;;;;;7.72;6.32;;;;;;;23.83;50.72;95129.34;4989543;28;20034;-64
2022/09/09 02:14:56;;;;;;;7.95;6.60;;;;;;;23.69;50.89;95108.63;4996007;28;20046;-62
2022/09/09 02:17:30;;;;;;;8.25;6.88;;;;;;;23.77;51.18;95115.00;4989236;28;20049;-62
2022/09/09 02:20:10;;;;;;;9.70;7.35;;;;;;;23.74;50.90;95110.56;5006957;28;20469;-64
2022/09/09 02:22:35;;;;;;;;;;;;;;;23.84;50.97;95125.34;4999811;28;20108;-61
2022/09/09 02:25:01;;;;;;;8.77;7.22;;;;;;;23.81;50.71;95126.38;5012473;28;20368;-60
2022/09/09 02:27:26;;;;;;;9.23;6.78;;;;;;;23.75;50.91;95128.41;4960230;28;20041;-61
2022/09/09 02:29:52;;;;;;;8.98;7.22;;;;;;;23.82;50.95;95138.75;4985354;28;20042;-61
2022/09/09 02:32:20;;;;;;;9.82;6.95;;;;;;;23.01;50.54;95018.97;4988798;28;20092;-61
2022/09/09 02:34:55;;;;;;;8.65;6.63;;;;;;;23.56;50.69;95100.28;4971797;28;20033;-60
2022/09/09 02:37:21;;;;;;;8.18;7.38;;;;;;;23.68;51.07;95128.97;4993249;28;20033;-59
2022/09/09 02:39:47;;;;;;;8.10;6.90;;;;;;;23.25;50.59;95051.72;5004938;28;20091;-61
2022/09/09 02:42:14;;;;;;;8.93;7.35;;;;;;;23.81;50.93;95142.72;5005891;28;20065;-62
2022/09/09 02:44:40;;;;;;;9.13;6.93;;;;;;;23.45;50.85;95112.00;5005742;28;20053;-62
2022/09/09 02:47:17;;;;;;;9.27;6.93;;;;;;;23.77;50.71;95153.19;4987768;28;20538;-60
2022/09/09 02:50:07;;;;;;;8.15;6.53;;;;;;;23.73;50.61;95147.25;5005372;28;20490;-60
2022/09/09 02:52:47;;;;;;;9.20;6.60;;;;;;;23.10;50.74;95059.50;5006170;28;20033;-60
2022/09/09 02:55:30;;;;;;;8.40;6.45;;;;;;;23.73;50.67;95141.81;4996357;28;20034;-61
2022/09/09 02:57:55;;;;;;;9.05;6.60;;;;;;;23.05;50.83;95046.66;5005865;28;20067;-60
2022/09/09 03:00:25;;;;;;;9.02;7.15;;;;;;;23.58;50.93;95119.59;4978690;28;20506;-60
2022/09/09 03:02:51;;;;;;;9.48;7.25;;;;;;;21.40;50.45;94816.09;5005044;28;20113;-63
2022/09/09 03:05:16;;;;;;;8.63;6.93;;;;;;;23.66;50.77;95140.38;5005221;28;20045;-64
2022/09/09 03:07:42;;;;;;;8.70;7.10;;;;;;;23.58;51.15;95144.13;5004856;28;20502;-62
2022/09/09 03:10:08;;;;;;;9.48;7.13;;;;;;;23.46;51.59;95137.28;5010589;28;20027;-61
2022/09/09 03:12:33;;;;;;;8.27;7.07;;;;;;;22.87;51.59;95067.53;4995679;28;20415;-62
2022/09/09 03:14:59;;;;;;;8.82;6.93;;;;;;;23.06;51.21;95075.41;5003459;28;20550;-62
2022/09/09 03:17:24;;;;;;;9.80;6.55;;;;;;;23.34;51.09;95124.97;5005578;28;20407;-63
2022/09/09 03:19:52;;;;;;;8.63;7.18;;;;;;;23.53;51.31;95158.53;5005031;28;20030;-58
2022/09/09 03:22:17;;;;;;;9.20;7.35;;;;;;;23.02;51.01;95063.28;5004732;28;20045;-62
2022/09/09 03:24:43;;;;;;;8.32;7.05;;;;;;;23.55;50.76;95142.41;5005560;28;20030;-61
2022/09/09 03:27:08;;;;;;;10.20;7.28;;;;;;;22.89;50.71;95036.59;5006041;28;20053;-61
2022/09/09 03:29:34;;;;;;;10.02;7.53;;;;;;;23.60;51.11;95149.81;5004871;28;20052;-58
2022/09/09 03:31:59;;;;;;;8.20;7.32;;;;;;;23.52;51.17;95143.44;5005010;28;20034;-63
2022/09/09 03:34:25;;;;;;;8.43;6.65;;;;;;;23.55;51.30;95142.41;5005185;28;20029;-61
2022/09/09 03:36:50;;;;;;;10.13;7.28;;;;;;;23.39;51.18;95145.97;4995035;28;20045;-62
2022/09/09 03:39:16;;;;;;;10.38;7.50;;;;;;;23.00;51.14;95066.53;4973513;28;20491;-64
2022/09/09 03:41:41;;;;;;;8.52;7.13;;;;;;;22.81;51.17;95036.88;4985375;28;20050;-62
2022/09/09 03:44:07;;;;;;;9.23;7.70;;;;;;;22.95;51.06;95048.22;4987213;28;20045;-63
2022/09/09 03:46:33;;;;;;;8.23;6.75;;;;;;;23.35;50.99;95117.53;4984909;28;20038;-63
2022/09/09 03:48:59;;;;;;;11.30;7.35;;;;;;;22.59;50.81;95005.09;4987174;28;20795;-62
2022/09/09 03:51:24;;;;;;;8.65;7.05;;;;;;;23.49;50.73;95133.53;4978498;28;20075;-63
2022/09/09 03:53:50;;;;;;;10.10;6.80;;;;;;;22.84;50.67;95046.78;4965933;28;20126;-60
2022/09/09 03:56:15;;;;;;;8.55;7.00;;;;;;;23.44;51.13;95139.78;4968854;28;20046;-65
2022/09/09 03:58:41;;;;;;;7.28;6.55;;;;;;;23.06;50.63;95080.84;4975785;28;20435;-61
2022/09/09 04:01:12;;;;;;;7.68;6.57;;;;;;;23.15;50.58;95096.88;4984468;28;20103;-60
2022/09/09 04:03:38;;;;;;;9.10;7.18;;;;;;;23.49;50.74;95161.53;4987837;28;20134;-61
2022/09/09 04:06:04;;;;;;;9.05;6.50;;;;;;;23.51;51.03;95158.28;4981359;28;20124;-61
2022/09/09 04:08:33;;;;;;;10.10;7.15;;;;;;;23.35;50.94;95134.63;4984332;28;20045;-60
2022/09/09 04:11:00;;;;;;;8.35;6.93;;;;;;;23.29;50.62;95125.75;4968238;28;20084;-61
2022/09/09 04:13:26;;;;;;;8.73;7.20;;;;;;;23.33;50.66;95141.81;4988521;28;20038;-61
2022/09/09 04:15:56;;;;;;;9.52;7.35;;;;;;;22.36;50.63;94997.59;4982613;28;20038;-60
2022/09/09 04:18:22;;;;;;;9.30;6.80;;;;;;;23.39;50.72;95145.97;4985179;28;20042;-60
2022/09/09 04:20:48;;;;;;;8.05;7.03;;;;;;;23.33;50.82;95145.28;4990501;28;20045;-61
2022/09/09 04:23:14;;;;;;;10.32;7.55;;;;;;;23.38;51.24;95149.97;4976389;28;20053;-59
2022/09/09 04:25:50;;;;;;;10.70;7.03;;;;;;;23.44;50.68;95148.69;4987345;28;20466;-63
2022/09/09 04:28:17;;;;;;;7.82;6.32;;;;;;;23.39;51.04;95156.88;4972184;28;20043;-67
2022/09/09 04:30:42;;;;;;;9.48;7.28;;;;;;;22.81;51.00;95058.69;4964962;28;20038;-63
2022/09/09 04:33:09;;;;;;;8.77;6.97;;;;;;;22.60;50.81;95041.22;4984866;28;20042;-61
2022/09/09 04:35:34;;;;;;;10.07;7.30;;;;;;;22.72;50.63;95051.56;4960632;28;20648;-60
2022/09/09 04:38:02;;;;;;;11.43;7.35;;;;;;;22.54;50.90;95035.81;5015283;28;20049;-61
2022/09/09 04:40:29;;;;;;;8.25;7.18;;;;;;;23.24;51.10;95140.13;4989534;28;20010;-67
2022/09/09 04:42:55;;;;;;;10.25;7.40;;;;;;;23.28;51.19;95151.50;4997165;28;20321;-66
2022/09/09 04:45:20;;;;;;;9.43;7.38;;;;;;;22.93;51.06;95099.72;4983748;28;20553;-66
2022/09/09 04:47:46;;;;;;;10.15;7.35;;;;;;;23.28;50.90;95146.06;4998830;28;20422;-63
2022/09/09 04:50:12;;;;;;;9.43;7.45;;;;;;;23.46;51.09;95159.81;5002971;28;20519;-60
2022/09/09 04:52:37;;;;;;;9.05;7.65;;;;;;;23.33;51.18;95148.00;5000560;28;20046;-67
2022/09/09 04:55:03;;;;;;;10.40;7.85;;;;;;;23.39;51.70;95148.72;4987029;28;20030;-66
2022/09/09 04:57:31;;;;;;;9.32;7.95;;;;;;;22.84;51.85;95057.66;5003053;28;20680;-64
2022/09/09 04:59:57;;;;;;;12.10;8.27;;;;;;;22.90;51.59;95051.69;5003308;28;20154;-63
2022/09/09 05:02:23;;;;;;;9.43;8.32;;;;;;;22.87;51.91;95051.22;5000210;28;20034;-62
2022/09/09 05:04:49;;;;;;;12.98;8.38;;;;;;;23.38;52.20;95122.72;5007327;28;20445;-67
2022/09/09 05:07:15;;;;;;;10.25;7.97;;;;;;;23.61;52.18;95113.13;5003423;28;20414;-61
2022/09/09 05:09:40;;;;;;;11.18;8.15;;;;;;;23.80;51.90;95114.00;5003795;28;20029;-66
2022/09/09 05:12:06;;;;;;;8.95;7.53;;;;;;;23.46;51.27;95058.22;4986563;28;20031;-63
2022/09/09 05:14:32;;;;;;;9.90;8.18;;;;;;;23.76;51.11;95106.06;4997847;28;20073;-67
2022/09/09 05:17:16;;;;;;;10.85;7.93;;;;;;;24.07;51.67;95155.38;4992666;28;20041;-69
2022/09/09 05:19:41;;;;;;;9.48;7.88;;;;;;;23.51;51.11;95041.09;4989733;28;20053;-62
2022/09/09 05:22:07;;;;;;;10.45;7.70;;;;;;;23.75;50.93;95060.22;5001899;28;20185;-63
2022/09/09 05:24:33;;;;;;;10.43;7.47;;;;;;;23.91;50.96;95063.53;5001870;28;20041;-62
2022/09/09 05:27:01;;;;;;;10.30;7.50;;;;;;;24.13;50.95;95109.69;5004828;28;20041;-60
2022/09/09 05:29:27;;;;;;;12.23;8.20;;;;;;;24.44;51.37;95128.25;4987875;28;20125;-64
2022/09/09 05:31:52;;;;;;;13.68;8.48;;;;;;;23.75;53.26;95024.78;4999280;28;20413;-63
2022/09/09 05:34:18;;;;;;;12.88;8.80;;;;;;;24.43;51.95;95126.75;4999973;28;20053;-60
2022/09/09 05:36:43;;;;;;;12.68;8.10;;;;;;;23.53;51.37;94993.00;5000999;28;20070;-60
2022/09/09 05:39:09;;;;;;;12.02;7.85;;;;;;;23.73;50.75;94997.28;5001654;28;20715;-60
2022/09/09 05:41:35;;;;;;;12.13;8.70;;;;;;;24.62;51.72;95127.53;5000475;28;20517;-59
2022/09/09 05:44:01;;;;;;;9.88;8.50;;;;;;;24.80;50.56;95140.47;5000048;28;20026;-60
2022/09/09 05:46:27;;;;;;;11.45;8.65;;;;;;;24.23;50.20;95053.53;5000749;28;20029;-60
2022/09/09 05:48:53;;;;;;;11.75;8.30;;;;;;;24.76;50.13;95148.22;4999412;28;20093;-60
2022/09/09 05:51:23;;;;;;;9.65;8.70;;;;;;;24.67;49.50;95124.00;5002013;28;20095;-60
2022/09/09 05:53:49;;;;;;;9.55;8.13;;;;;;;24.46;49.72;95076.59;5002218;28;20111;-61
2022/09/09 05:56:19;;;;;;;12.55;8.20;;;;;;;24.97;49.50;95119.88;4992644;28;20526;-66
2022/09/09 05:58:46;;;;;;;11.52;8.18;;;;;;;24.93;49.34;95114.72;4977767;28;20041;-63
2022/09/09 06:01:19;;;;;;;9.40;8.07;;;;;;;25.14;48.89;95145.78;5013294;28;20466;-64
2022/09/09 06:03:46;;;;;;;11.30;7.97;;;;;;;24.81;48.47;95100.97;5003070;28;20040;-64
2022/09/09 06:06:13;;;;;;;10.48;8.20;;;;;;;25.12;48.52;95153.72;5001592;28;20119;-59
2022/09/09 06:08:40;;;;;;;9.60;7.15;;;;;;;25.21;47.91;95139.69;4998834;28;20034;-59
2022/09/09 06:11:08;;;;;;;8.80;7.40;;;;;;;25.34;47.81;95154.16;5002042;28;20034;-60
2022/09/09 06:13:33;;;;;;;9.07;6.97;;;;;;;25.33;47.07;95162.88;5001576;28;20733;-60
2022/09/09 06:15:59;;;;;;;9.88;7.43;;;;;;;25.20;47.07;95127.31;5001605;28;20453;-59
2022/09/09 06:18:25;;;;;;;11.23;6.78;;;;;;;24.44;46.99;95008.88;5004574;28;20042;-60
2022/09/09 06:20:55;;;;;;;9.00;7.03;;;;;;;25.58;46.62;95134.91;4995341;28;20035;-62
2022/09/09 06:23:21;;;;;;;10.20;6.82;;;;;;;26.04;45.52;95148.16;4999993;28;20096;-61
2022/09/09 06:25:47;;;;;;;8.82;7.18;;;;;;;25.28;45.79;95062.56;5003654;28;20045;-61
2022/09/09 06:28:13;;;;;;;10.70;6.63;;;;;;;25.65;46.59;95147.28;5003694;28;20498;-61
2022/09/09 06:30:39;;;;;;;10.80;6.35;;;;;;;25.69;46.43;95150.47;5005870;28;20046;-60
2022/09/09 06:33:05;;;;;;;8.82;6.00;;;;;;;25.38;46.10;95093.72;4974939;28;20034;-60
2022/09/09 06:35:30;;;;;;;12.00;7.07;;;;;;;25.83;45.96;95156.19;4997730;28;20049;-60
2022/09/09 06:37:58;;;;;;;8.27;6.45;;;;;;;25.63;46.17;95125.16;4999508;28;20418;-61
2022/09/09 06:40:24;;;;;;;8.93;6.32;;;;;;;24.81;45.92;95002.66;5011843;28;20115;-61
2022/09/09 06:42:50;;;;;;;9.77;6.80;;;;;;;25.31;45.31;95069.72;5000995;28;20677;-60
2022/09/09 06:45:15;;;;;;;8.57;6.00;;;;;;;26.34;44.04;95124.72;4997747;28;20132;-65
2022/09/09 06:47:42;;;;;;;8.85;6.45;;;;;;;25.71;43.53;95039.25;4994704;28;20038;-64
2022/09/09 06:50:07;;;;;;;7.50;6.00;;;;;;;25.93;43.73;95077.91;4998818;28;20099;-60
2022/09/09 06:52:33;;;;;;;8.80;6.05;;;;;;;26.28;44.22;95154.22;5005043;28;21288;-60
2022/09/09 06:54:59;;;;;;;9.98;6.97;;;;;;;26.23;44.09;95155.00;5006381;28;20575;-60
2022/09/09 06:57:24;;;;;;;11.63;7.55;;;;;;;25.71;44.14;95087.75;5010752;28;20089;-60
2022/09/09 06:59:50;;;;;;;12.85;7.30;;;;;;;26.19;43.57;95164.78;5004916;28;20042;-60
2022/09/09 07:02:15;;;;;;;12.38;7.50;;;;;;;26.16;43.31;95172.06;4988981;28;20515;-61
2022/09/09 07:04:41;;;;;;;8.90;6.35;;;;;;;26.02;43.31;95106.84;4992169;28;20108;-62
2022/09/09 07:07:08;;;;;;;8.77;6.50;;;;;;;26.21;43.51;95141.09;5006250;28;20022;-61
2022/09/09 07:09:33;;;;;;;9.52;6.68;;;;;;;25.98;43.95;95112.66;5005520;28;20493;-61
2022/09/09 07:12:00;;;;;;;9.68;6.88;;;;;;;26.11;43.89;95142.75;5000071;28;20042;-61
2022/09/09 07:14:25;;;;;;;8.50;7.07;;;;;;;26.20;43.94;95106.75;4998314;28;20026;-61
2022/09/09 07:16:51;;;;;;;8.70;6.50;;;;;;;25.69;43.53;95024.63;5005705;28;20435;-61
2022/09/09 07:19:16;;;;;;;12.23;7.35;;;;;;;25.87;43.77;95052.66;5004602;28;20096;-61
2022/09/09 07:21:42;;;;;;;9.32;7.30;;;;;;;26.21;43.91;95132.88;5010771;28;20569;-61
2022/09/09 07:24:09;;;;;;;10.30;6.70;;;;;;;25.88;44.26;95043.16;4990998;28;20526;-62
2022/09/09 07:26:36;;;;;;;9.25;6.65;;;;;;;26.54;44.47;95130.28;5003289;28;20046;-61
2022/09/09 07:29:01;;;;;;;9.70;6.22;;;;;;;26.74;44.30;95137.13;5005480;28;20561;-61
2022/09/09 07:31:30;;;;;;;9.90;7.00;;;;;;;26.51;43.48;95095.75;5004915;28;20112;-61
2022/09/09 07:33:56;;;;;;;11.93;6.72;;;;;;;27.18;42.58;95137.00;5004817;28;20037;-61
2022/09/09 07:36:29;;;;;;;9.50;6.35;;;;;;;27.09;42.98;95129.22;5004262;28;20449;-61
2022/09/09 07:38:56;;;;;;;12.05;6.72;;;;;;;26.94;42.68;95129.75;5003914;28;20045;-61
2022/09/09 07:41:34;;;;;;;10.05;6.60;;;;;;;27.20;42.19;95145.44;4999108;28;20041;-61
2022/09/09 07:44:00;;;;;;;10.27;6.50;;;;;;;26.63;43.02;95142.84;5009372;28;20080;-61
2022/09/09 07:46:26;;;;;;;9.30;6.22;;;;;;;26.30;43.33;95140.72;5003869;28;20018;-61
2022/09/09 07:48:53;;;;;;;10.75;6.43;;;;;;;26.54;43.75;95146.00;4992739;28;20531;-61
2022/09/09 07:51:22;;;;;;;9.63;6.38;;;;;;;26.58;43.30;95140.97;4996697;28;20046;-61
2022/09/09 07:53:48;;;;;;;11.70;6.75;;;;;;;26.65;43.29;95134.81;4985470;28;20112;-61
2022/09/09 07:56:19;;;;;;;6.85;6.13;;;;;;;26.13;42.96;95052.66;5005064;28;20046;-61
2022/09/09 07:58:45;;;;;;;7.97;5.80;;;;;;;26.51;42.82;95134.09;5004985;28;20125;-61
2022/09/09 08:01:13;;;;;;;8.35;4.90;;;;;;;26.04;43.86;95121.50;5004588;28;20026;-61
2022/09/09 08:03:39;;;;;;;7.32;5.63;;;;;;;26.11;43.34;95109.91;5009396;28;20041;-61
2022/09/09 08:06:06;;;;;;;9.10;5.78;;;;;;;26.20;42.59;95062.22;5017918;28;20048;-61
2022/09/09 08:08:32;;;;;;;8.43;5.18;;;;;;;26.42;43.28;95133.78;5017213;28;20041;-60
2022/09/09 08:11:12;;;;;;;9.65;5.00;;;;;;;26.09;42.99;95079.59;5011383;28;20058;-60
2022/09/09 08:13:38;;;;;;;;;;;;;;;26.76;42.93;95133.34;5009672;28;20518;-60
2022/09/09 08:16:10;;;;;;;6.32;4.80;;;;;;;25.99;41.72;94999.19;4998579;28;19924;-60
2022/09/09 08:18:35;;;;;;;6.60;4.97;;;;;;;26.65;42.86;95115.66;5003992;28;20049;-61
2022/09/09 08:21:11;;;;;;;8.32;5.30;;;;;;;27.16;42.31;95137.53;4997319;28;20041;-61
2022/09/09 08:23:41;;;;;;;6.00;5.05;;;;;;;26.88;42.07;95076.31;5005152;28;20042;-60
2022/09/09 08:26:22;;;;;;;8.90;5.43;;;;;;;26.68;41.54;95035.88;5004436;28;20047;-60
2022/09/09 08:28:47;;;;;;;;;;;;;;;27.31;42.61;95134.97;4979995;28;20081;-61
2022/09/09 08:31:16;;;;;;;7.40;5.45;;;;;;;27.02;41.75;95092.22;5005156;28;19913;-60
2022/09/09 08:33:47;;;;;;;9.45;5.47;;;;;;;26.82;41.98;95054.50;5006027;28;20044;-61
2022/09/09 08:36:19;;;;;;;8.00;5.13;;;;;;;27.52;41.79;95122.00;5008614;28;20145;-61
2022/09/09 08:38:47;;;;;;;6.72;4.85;;;;;;;27.05;41.50;95047.28;5001267;28;20084;-61
2022/09/09 08:41:37;;;;;;;7.07;4.63;;;;;;;27.63;42.09;95138.25;5002344;28;20046;-61
2022/09/09 08:44:31;;;;;;;7.68;5.03;;;;;;;27.80;41.03;95129.09;5000211;28;20045;-60
2022/09/09 08:47:20;;;;;;;7.55;5.18;;;;;;;27.73;41.90;95116.00;4999282;28;20050;-62
2022/09/09 08:50:10;;;;;;;6.10;4.78;;;;;;;27.34;41.20;95024.19;5004822;28;20577;-61
2022/09/09 08:52:49;;;;;;;6.68;4.72;;;;;;;27.92;41.10;95122.06;4988442;28;20065;-60
2022/09/09 08:55:45;;;;;;;7.30;4.88;;;;;;;27.84;41.68;95126.00;5001489;28;20072;-60
2022/09/09 08:58:34;;;;;;;7.18;5.15;;;;;;;27.53;42.11;95074.13;5005899;28;20040;-60
2022/09/09 09:01:10;;;;;;;7.07;5.03;;;;;;;27.74;42.01;95112.00;4970268;28;20108;-60
2022/09/09 09:03:39;;;;;;;7.32;4.97;;;;;;;27.92;41.84;95110.31;4985151;28;20044;-62
2022/09/09 09:06:22;;;;;;;7.07;5.07;;;;;;;27.96;41.51;95111.44;5002872;28;20034;-62
2022/09/09 09:09:45;;;;;;;6.88;4.60;;;;;;;28.00;41.61;95122.84;4987451;28;20064;-60
2022/09/09 09:12:19;;;;;;;6.82;5.03;;;;;;;27.43;42.19;95053.91;4907710;29;20119;-60
2022/09/09 09:14:46;;;;;;;6.53;4.72;;;;;;;27.42;41.24;95035.94;4899668;29;20036;-61
2022/09/09 09:17:14;;;;;;;6.75;4.90;;;;;;;27.49;41.33;95040.78;4956018;28;20042;-62
2022/09/09 09:19:41;;;;;;;9.88;5.05;;;;;;;27.41;41.00;95018.00;5002751;28;20046;-62
2022/09/09 09:22:20;;;;;;;7.07;4.78;;;;;;;28.23;41.24;95106.56;4964493;28;20061;-61
2022/09/09 09:25:08;;;;;;;7.85;4.82;;;;;;;28.01;42.49;95118.84;4996441;28;20050;-61
2022/09/09 09:27:35;;;;;;;8.30;4.40;;;;;;;27.71;42.82;95100.63;5002107;28;20069;-61
2022/09/09 09:30:21;;;;;;;9.60;5.10;;;;;;;27.40;42.10;95049.47;4995635;28;20239;-60
2022/09/09 09:32:53;;;;;;;7.38;5.30;;;;;;;28.10;41.70;95110.16;5002460;28;20050;-60
2022/09/09 09:35:18;;;;;;;8.18;5.15;;;;;;;28.25;41.74;95121.97;4979344;28;20055;-59
2022/09/09 09:37:45;;;;;;;8.57;4.70;;;;;;;28.29;41.13;95132.59;4977795;28;20053;-63
2022/09/09 09:40:12;;;;;;;7.82;5.13;;;;;;;27.77;41.82;95056.03;4985398;28;20049;-60
2022/09/09 09:42:39;;;;;;;8.35;4.80;;;;;;;27.92;41.39;95061.66;4974751;28;20050;-61
2022/09/09 09:45:28;;;;;;;7.65;4.82;;;;;;;28.06;41.10;95067.78;4956274;28;20126;-62
2022/09/09 09:48:05;;;;;;;7.85;4.63;;;;;;;28.38;40.00;95091.63;4971075;28;20124;-62
2022/09/09 09:50:31;;;;;;;6.03;4.95;;;;;;;27.98;40.76;95012.81;4978649;28;20057;-62
2022/09/09 09:53:04;;;;;;;8.65;5.20;;;;;;;27.69;41.01;94993.41;4963867;28;20079;-62
2022/09/09 09:55:30;;;;;;;6.80;4.93;;;;;;;28.00;40.75;95007.53;4963886;28;20231;-60
2022/09/09 09:58:04;;;;;;;6.97;4.85;;;;;;;28.11;39.97;95033.97;4984627;28;20038;-61
2022/09/09 10:00:29;;;;;;;8.20;5.43;;;;;;;27.64;41.09;94955.84;4964142;28;20064;-61
2022/09/09 10:02:56;;;;;;;6.40;4.72;;;;;;;28.67;40.57;95090.38;4984868;28;20535;-62
2022/09/09 10:05:35;;;;;;;8.50;5.30;;;;;;;28.04;40.19;95027.13;4973928;28;20038;-62
2022/09/09 10:08:08;;;;;;;6.00;5.15;;;;;;;28.14;40.71;95017.16;4972688;28;20039;-62
2022/09/09 10:10:51;;;;;;;8.43;5.57;;;;;;;28.72;40.34;95100.47;4967679;28;20042;-61
2022/09/09 10:13:33;;;;;;;7.20;5.30;;;;;;;28.59;40.83;95094.31;4985926;28;20042;-61
2022/09/09 10:16:08;;;;;;;7.43;4.97;;;;;;;28.70;41.04;95100.28;4950835;28;20038;-61
2022/09/09 10:18:55;;;;;;;8.13;5.40;;;;;;;28.77;40.45;95105.81;4960166;28;20035;-61
2022/09/09 10:21:26;;;;;;;6.25;4.88;;;;;;;28.68;41.43;95107.59;4970698;28;20042;-61
2022/09/09 10:24:18;;;;;;;8.85;5.25;;;;;;;28.81;40.42;95099.97;4972714;28;20062;-63
2022/09/09 10:27:16;;;;;;;8.55;5.40;;;;;;;28.07;40.94;95023.31;4965657;28;20037;-61
2022/09/09 10:29:48;;;;;;;6.78;5.07;;;;;;;28.70;40.24;95099.53;4977839;28;20038;-61
2022/09/09 10:32:32;;;;;;;7.45;5.07;;;;;;;28.49;41.00;95094.09;4981137;28;20035;-62
2022/09/09 10:35:10;;;;;;;9.38;5.43;;;;;;;28.56;40.82;95111.91;4982632;28;20051;-61
2022/09/09 10:38:04;;;;;;;7.53;5.13;;;;;;;28.67;40.15;95100.63;4962758;28;20087;-60
2022/09/09 10:40:33;;;;;;;12.23;5.60;;;;;;;28.63;41.08;95111.94;4961308;28;20034;-61
2022/09/09 10:43:08;;;;;;;8.68;5.78;;;;;;;28.30;40.77;95046.19;4989161;28;20030;-61
2022/09/09 10:45:39;;;;;;;8.15;5.80;;;;;;;28.74;40.79;95112.41;4972303;28;20044;-61
2022/09/09 10:48:38;;;;;;;12.15;5.72;;;;;;;28.65;40.42;95092.16;4984929;28;20558;-62
2022/09/09 10:51:58;;;;;;;17.42;7.43;;;;;;;28.47;40.87;95090.41;4945381;28;20110;-62
2022/09/09 10:54:30;;;;;;;11.30;5.57;;;;;;;28.38;40.07;95042.19;4914478;29;20134;-63
2022/09/09 10:57:23;;;;;;;7.97;5.18;;;;;;;28.77;40.79;95083.84;4973100;28;20452;-63
2022/09/09 13:07:47;;;;;;;9.95;6.80;;;;;;;28.72;42.18;94932.06;4637870;28;20057;-60
2022/09/09 13:10:14;;;;;;;14.23;7.30;;;;;;;28.63;42.26;94897.56;4966184;28;20515;-61
2022/09/09 13:12:41;;;;;;;10.63;6.60;;;;;;;28.58;42.54;94901.22;4964681;28;20065;-61
2022/09/09 13:15:15;;;;;;;13.15;6.20;;;;;;;29.12;41.60;94926.25;4979175;28;20546;-62
2022/09/09 13:17:41;;;;;;;10.88;6.70;;;;;;;29.00;42.31;94933.41;4973488;28;20065;-61
2022/09/09 13:20:14;;;;;;;8.35;6.05;;;;;;;28.79;42.61;94916.31;4983149;28;20495;-60
2022/09/09 13:22:40;;;;;;;10.00;6.60;;;;;;;29.07;42.12;94935.41;4963796;28;20031;-60
2022/09/09 13:25:18;;;;;;;9.55;5.57;;;;;;;28.77;43.05;94899.66;4964116;28;20033;-61
2022/09/09 13:28:00;;;;;;;8.73;5.20;;;;;;;28.49;43.78;94933.97;4958756;28;20094;-61
2022/09/09 13:30:30;;;;;;;8.70;5.22;;;;;;;28.90;42.30;94918.72;4981221;28;20070;-61
2022/09/09 13:33:12;;;;;;;6.75;5.15;;;;;;;28.62;43.11;94933.84;4981735;28;20050;-61
2022/09/09 13:35:49;;;;;;;9.27;5.47;;;;;;;28.62;43.57;94911.84;4978293;28;20463;-63
2022/09/09 13:38:15;;;;;;;10.40;5.60;;;;;;;27.84;43.93;94841.25;4980347;28;20039;-61
2022/09/09 13:40:40;;;;;;;10.15;5.43;;;;;;;27.84;43.46;94868.69;4973026;28;20545;-61
2022/09/09 13:43:15;;;;;;;8.32;5.68;;;;;;;28.34;43.11;94848.75;4979401;28;20039;-61
2022/09/09 13:45:40;;;;;;;9.48;5.05;;;;;;;28.61;42.33;94872.66;4949246;28;20039;-61
2022/09/09 13:48:10;;;;;;;9.35;5.22;;;;;;;28.73;42.06;94907.50;4978717;28;20217;-61
2022/09/09 13:50:35;;;;;;;9.95;4.95;;;;;;;28.30;41.46;94788.69;4964981;28;20042;-61
2022/09/09 13:53:01;;;;;;;10.63;4.93;;;;;;;29.13;41.27;94910.47;4982332;28;20035;-61
2022/09/09 13:55:27;;;;;;;9.45;4.93;;;;;;;29.01;41.41;94866.09;4982195;28;20034;-61
2022/09/09 13:57:54;;;;;;;9.48;5.20;;;;;;;28.77;41.76;94861.16;4982566;28;20566;-61